• Join FlightAware (Why Join?)
  • Login
  • US Flag 
12:06PM EST


 

Airport Tracker/Info


-or-


 

Live Flight TrackerFlight Track Log ✈ SKW6306 ✈ 21-Jun-2013 ✈ KDEN - KCOD

Flight Track Log - Related Links

Times and Time Zones

All times are in EDT time to prevent confusion due to time zone crossing. See the SKW6306 flight status page for this flight to view local times or setup timezone preferences in your user account.

Time Position Orientation Groundspeed Altitude Reporting Facility
EDT Latitude Longitude Course Direction KTS MPH feet Rate Location/Type
09:48PM 39.9000 -104.6833 30° Northeast 169 194 7,000  Level Denver TRACON
09:49PM 39.9667 -104.6333 30° Northeast 232 267 8,900 1,429 Climbing Denver TRACON
09:50PM 40.0167 -104.5667 46° Northeast 279 321 10,000 750 Climbing Denver TRACON
09:51PM 40.1000 -104.5333 17° North 327 376 10,400 842 Climbing Denver TRACON
09:52PM 40.1833 -104.5500 351° North 333 383 11,600 1,316 Climbing Denver TRACON
09:53PM 40.2667 -104.6000 335° Northwest 353 406 12,900 1,300 Climbing Denver TRACON
09:54PM 40.3667 -104.6500 339° North 360 414 14,200 1,300 Climbing Denver TRACON
09:55PM 40.4500 -104.6833 343° North 359 413 15,500 1,398 Climbing Denver TRACON
09:56PM 40.5697 -104.7467 338° Northwest 363 418 17,300 1,343 Climbing Salt Lake Center
09:57PM 40.6639 -104.7967 338° Northwest 371 427 18,500 1,268 Climbing Salt Lake Center
09:58PM 40.7581 -104.8964 321° Northwest 377 434 19,900 1,219 Climbing Salt Lake Center
09:59PM 40.8253 -104.9939 312° West 378 435 21,100 1,313 Climbing Denver Center
10:00PM 40.9303 -105.0969 323° Northwest 393 452 22,700 919 Climbing Denver Center
10:01PM 41.0194 -105.1831 324° Northwest 399 459 23,000 145 Climbing Denver Center
10:02PM 41.1164 -105.2769 324° Northwest 423 487 23,000 823 Level Denver Center
10:03PM 41.2083 -105.3686 323° Northwest 429 494 24,700 1,355 Climbing Denver Center
10:04PM 41.3114 -105.4700 324° Northwest 416 479 25,800 1,016 Climbing Denver Center
10:05PM 41.4006 -105.5569 324° Northwest 415 478 26,800 1,016 Climbing Denver Center
10:06PM 41.5058 -105.6631 323° Northwest 422 486 27,900 1,016 Climbing Denver Center
10:07PM 41.5964 -105.7536 323° Northwest 424 488 28,900 1,016 Climbing Denver Center
10:08PM 41.7014 -105.8569 324° Northwest 417 480 30,000 1,016 Climbing Denver Center
10:09PM 41.7917 -105.9469 323° Northwest 419 482 31,000 919 Climbing Denver Center
10:10PM 41.8808 -106.0378 323° Northwest 421 484 31,900 484 Climbing Denver Center
10:11PM 41.9856 -106.1431 323° Northwest 420 483 32,000 48 Climbing Denver Center
10:12PM 42.0817 -106.2408 323° Northwest 442 509 32,000  Level Denver Center
10:13PM 42.1969 -106.3569 323° Northwest 458 527 32,000  Level Denver Center
10:14PM 42.2964 -106.4594 323° Northwest 465 535 32,000  Level Denver Center
10:15PM 42.4136 -106.5786 323° Northwest 469 540 32,000  Level Denver Center
10:16PM 42.5136 -106.6825 323° Northwest 471 542 32,000  Level Denver Center
10:17PM 42.6319 -106.8044 323° Northwest 475 547 32,000  Level Denver Center
10:18PM 42.7169 -106.8931 323° Northwest 475 547 32,000  Level Salt Lake Center
10:19PM 42.8153 -106.9961 322° Northwest 477 549 32,000  Level Salt Lake Center
10:21PM 42.9519 -107.1400 322° Northwest 479 551 32,000  Level Denver Center
10:22PM 43.0531 -107.2456 323° Northwest 477 549 32,000  Level Denver Center
10:22PM 43.1506 -107.3511 322° Northwest 477 549 32,000  Level Salt Lake Center
10:23PM 43.2494 -107.4564 322° Northwest 474 545 32,000  Level Salt Lake Center
10:24PM 43.3478 -107.5628 322° Northwest 471 542 32,000  Level Salt Lake Center
10:25PM 43.4642 -107.6864 322° Northwest 474 545 32,000  Level Salt Lake Center
10:27PM 43.5611 -107.7922 322° Northwest 469 540 32,000  Level Salt Lake Center
10:28PM 43.6753 -107.9161 322° Northwest 468 539 32,000 -439 Level Salt Lake Center
10:29PM 43.7664 -108.0158 322° Northwest 447 514 31,100 -2,390 Descending Salt Lake Center
10:30PM 43.8703 -108.1306 321° Northwest 432 497 27,100 -3,610 Descending Salt Lake Center
10:31PM 43.9606 -108.2281 322° Northwest 432 497 23,700 -3,484 Descending Salt Lake Center
10:32PM 44.0636 -108.3358 323° Northwest 426 490 19,900 -2,146 Descending Salt Lake Center
10:33PM 44.1500 -108.4258 323° Northwest 425 489 19,300 -590 Descending Salt Lake Center
10:35PM 44.2836 -108.6401 319° Northwest  Level Estimated
10:42PM 44.5167 -109.0167 325° Northwest  Level FlightAware Approximate
10:43PM 44.5202 -109.0238 325° Northwest  Level Estimated
10:44PM 44.5167 -109.0167 325° Northwest  Level FlightAware Approximate
10:45PM 44.5202 -109.0238 325° Northwest  Level Estimated
10:46PM 44.5167 -109.0167 325° Northwest  Level FlightAware Approximate
10:47PM 44.5202 -109.0238 325° Northwest  Level Estimated